createdAt,value
2019-05-01T00:01:15.754Z,46.13
2019-05-01T00:04:05.193Z,46.06
2019-05-01T00:06:45.035Z,46.24
2019-05-01T00:09:16.993Z,46.43
2019-05-01T00:11:49.674Z,46.11
2019-05-01T00:14:22.713Z,46.20
2019-05-01T00:16:55.149Z,46.32
2019-05-01T00:19:26.883Z,46.22
2019-05-01T00:21:59.025Z,46.27
2019-05-01T00:24:32.218Z,46.52
2019-05-01T00:27:20.438Z,46.26
2019-05-01T00:29:59.617Z,46.71
2019-05-01T00:32:29.870Z,46.33
2019-05-01T00:35:01.778Z,46.74
2019-05-01T00:37:32.522Z,46.52
2019-05-01T00:40:03.638Z,46.85
2019-05-01T00:42:34.308Z,46.84
2019-05-01T00:45:08.260Z,46.55
2019-05-01T00:47:40.125Z,46.80
2019-05-01T00:50:11.589Z,47.10
2019-05-01T00:52:42.814Z,46.84
2019-05-01T00:55:33.373Z,46.74
2019-05-01T00:58:17.020Z,46.63
2019-05-01T01:00:57.458Z,47.02
2019-05-01T01:03:29.377Z,47.27
2019-05-01T01:06:00.293Z,47.24
2019-05-01T01:08:35.299Z,47.32
2019-05-01T01:11:07.834Z,47.20
2019-05-01T01:13:38.023Z,47.29
2019-05-01T01:16:11.967Z,47.46
2019-05-01T01:18:43.499Z,47.61
2019-05-01T01:21:14.435Z,48.28
2019-05-01T01:23:47.613Z,47.75
2019-05-01T01:26:18.561Z,47.52
2019-05-01T01:28:50.604Z,47.67
2019-05-01T01:31:22.919Z,47.78
2019-05-01T01:33:53.198Z,48.68
2019-05-01T01:36:23.391Z,48.65
2019-05-01T01:38:53.957Z,48.61
2019-05-01T01:41:25.143Z,48.40
2019-05-01T01:44:23.470Z,48.23
2019-05-01T01:46:57.071Z,48.51
2019-05-01T01:49:27.826Z,48.55
2019-05-01T01:52:00.639Z,48.58
2019-05-01T01:54:33.616Z,48.52
2019-05-01T01:57:05.874Z,48.57
2019-05-01T01:59:37.605Z,48.52
2019-05-01T02:02:17.771Z,48.44
2019-05-01T02:05:24.913Z,49.60
2019-05-01T02:07:58.269Z,49.23
2019-05-01T02:10:42.264Z,48.77
2019-05-01T02:13:03.835Z,49.33
2019-05-01T02:15:35.108Z,48.93
2019-05-01T02:18:05.886Z,49.06
2019-05-01T02:20:39.972Z,48.71
2019-05-01T02:23:11.792Z,49.43
2019-05-01T02:25:46.814Z,49.14
2019-05-01T02:28:29.027Z,49.46
2019-05-01T02:31:29.304Z,48.97
2019-05-01T02:34:02.541Z,49.22
2019-05-01T02:36:37.448Z,49.56
2019-05-01T02:39:12.837Z,49.60
2019-05-01T02:41:46.138Z,49.34
2019-05-01T02:44:21.612Z,49.81
2019-05-01T02:46:55.172Z,49.81
2019-05-01T02:49:39.113Z,49.65
2019-05-01T02:52:12.862Z,49.91
2019-05-01T02:54:47.851Z,49.45
2019-05-01T02:57:25.054Z,50.59
2019-05-01T02:59:59.258Z,50.19
2019-05-01T03:02:35.395Z,49.70
2019-05-01T03:05:08.614Z,49.94
2019-05-01T03:07:46.268Z,49.89
2019-05-01T03:10:19.115Z,49.62
2019-05-01T03:12:52.987Z,50.76
2019-05-01T03:15:28.434Z,49.84
2019-05-01T03:18:26.546Z,49.81
2019-05-01T03:21:22.438Z,49.80
2019-05-01T03:23:58.337Z,49.86
2019-05-01T03:26:31.182Z,50.21
2019-05-01T03:29:02.773Z,50.36
2019-05-01T03:31:33.613Z,50.44
2019-05-01T03:34:08.883Z,50.18
2019-05-01T03:36:41.295Z,50.61
2019-05-01T03:39:12.074Z,50.25
2019-05-01T03:41:44.421Z,50.75
2019-05-01T03:44:17.975Z,50.27
2019-05-01T03:46:51.829Z,50.78
2019-05-01T03:49:23.314Z,50.22
2019-05-01T03:51:54.170Z,50.08
2019-05-01T03:54:35.372Z,50.55
2019-05-01T03:57:06.116Z,50.94
2019-05-01T03:59:47.231Z,50.00
2019-05-01T04:02:34.168Z,50.10
2019-05-01T04:05:06.762Z,50.91
2019-05-01T04:07:39.065Z,49.78
2019-05-01T04:10:11.960Z,50.35
2019-05-01T04:12:45.347Z,50.10
2019-05-01T04:15:16.286Z,50.13
2019-05-01T04:17:55.411Z,50.12
2019-05-01T04:20:28.000Z,49.91
2019-05-01T04:23:00.578Z,49.57
2019-05-01T04:25:31.997Z,49.93
2019-05-01T04:28:22.831Z,49.50
2019-05-01T04:31:14.894Z,49.78
2019-05-01T04:33:56.659Z,50.22
2019-05-01T04:36:35.952Z,50.23
2019-05-01T04:39:12.103Z,50.28
2019-05-01T04:41:45.802Z,53.08
2019-05-01T04:44:17.554Z,50.99
2019-05-01T04:46:49.259Z,52.22
2019-05-01T04:49:21.374Z,51.74
2019-05-01T04:51:52.537Z,52.01
2019-05-01T04:54:23.596Z,51.65
2019-05-01T04:56:56.408Z,51.49
2019-05-01T04:59:28.105Z,51.55
2019-05-01T05:02:04.508Z,51.27
2019-05-01T05:04:36.583Z,51.09
2019-05-01T05:07:06.763Z,51.35
2019-05-01T05:09:47.728Z,51.30
2019-05-01T05:12:31.687Z,51.25
2019-05-01T05:15:19.674Z,52.56
2019-05-01T05:17:51.301Z,51.61
2019-05-01T05:20:23.092Z,52.80
2019-05-01T05:22:55.860Z,53.30
2019-05-01T05:25:27.818Z,52.76
2019-05-01T05:28:00.440Z,54.72
2019-05-01T05:30:38.898Z,53.35
2019-05-01T05:33:18.641Z,52.90
2019-05-01T05:35:51.430Z,55.10
2019-05-01T05:38:44.202Z,54.04
2019-05-01T05:41:16.392Z,53.39
2019-05-01T05:43:48.476Z,52.90
2019-05-01T05:46:20.624Z,52.91
2019-05-01T05:48:52.436Z,52.76
2019-05-01T05:51:44.234Z,52.15
2019-05-01T05:54:43.392Z,52.03
2019-05-01T05:57:30.008Z,51.52
2019-05-01T06:00:26.538Z,51.19
2019-05-01T06:03:32.451Z,50.78
2019-05-01T06:06:53.114Z,50.82
2019-05-01T06:09:34.440Z,51.09
2019-05-01T06:12:25.941Z,50.72
2019-05-01T06:15:09.789Z,50.92
2019-05-01T06:17:46.650Z,51.81
2019-05-01T06:20:41.637Z,53.35
2019-05-01T06:23:45.000Z,51.61
2019-05-01T06:26:37.416Z,50.88
2019-05-01T06:29:07.416Z,50.62
2019-05-01T06:31:39.792Z,50.64
2019-05-01T06:34:10.241Z,52.05
2019-05-01T06:36:49.648Z,51.00
2019-05-01T06:39:26.826Z,50.55
2019-05-01T06:42:00.548Z,50.55
2019-05-01T06:44:44.314Z,50.23
2019-05-01T06:47:43.144Z,50.29
2019-05-01T06:50:27.285Z,51.33
2019-05-01T06:52:59.993Z,51.24
2019-05-01T06:55:34.248Z,50.75
2019-05-01T06:58:04.989Z,50.21
2019-05-01T07:00:39.191Z,49.60
2019-05-01T07:03:10.459Z,49.54
2019-05-01T07:05:44.645Z,49.49
2019-05-01T07:08:24.327Z,49.30
2019-05-01T07:10:48.488Z,48.51
2019-05-01T07:13:19.460Z,48.35
2019-05-01T07:15:51.705Z,48.54
2019-05-01T07:18:24.103Z,48.50
2019-05-01T07:20:55.837Z,48.18
2019-05-01T07:23:27.418Z,47.84
2019-05-01T07:25:58.448Z,47.58
2019-05-01T07:28:34.378Z,47.86
2019-05-01T07:31:08.049Z,48.21
2019-05-01T07:33:40.216Z,49.91
2019-05-01T07:36:16.540Z,48.18
2019-05-01T07:38:52.150Z,48.29
2019-05-01T07:41:23.737Z,48.10
2019-05-01T07:44:21.120Z,48.33
2019-05-01T07:47:16.990Z,48.60
2019-05-01T07:50:00.449Z,48.39
2019-05-01T07:52:31.181Z,49.97
2019-05-01T07:55:02.874Z,49.67
2019-05-01T07:57:39.259Z,50.96
2019-05-01T08:00:12.793Z,51.07
2019-05-01T08:02:45.289Z,51.68
2019-05-01T08:05:21.948Z,51.13
2019-05-01T08:07:54.807Z,50.47
2019-05-01T08:10:30.647Z,50.05
2019-05-01T08:13:00.511Z,49.79
2019-05-01T08:15:32.672Z,50.19
2019-05-01T08:18:24.104Z,49.66
2019-05-01T08:21:11.757Z,50.03
2019-05-01T08:23:47.187Z,49.00
2019-05-01T08:26:17.899Z,48.79
2019-05-01T08:29:08.151Z,48.31
2019-05-01T08:31:51.016Z,49.26
2019-05-01T08:34:25.348Z,50.82
2019-05-01T08:36:59.657Z,49.36
2019-05-01T08:39:30.825Z,48.42
2019-05-01T08:42:07.030Z,48.30
2019-05-01T08:44:44.739Z,47.87
2019-05-01T08:47:27.858Z,48.02
2019-05-01T08:50:15.352Z,48.35
2019-05-01T08:52:48.760Z,50.51
2019-05-01T08:55:20.146Z,50.71
2019-05-01T08:57:54.998Z,50.96
2019-05-01T09:00:26.385Z,50.52
2019-05-01T09:03:07.895Z,49.68
2019-05-01T09:05:33.634Z,49.24
2019-05-01T09:08:01.828Z,48.81
2019-05-01T09:10:32.976Z,48.84
2019-05-01T09:13:05.298Z,49.22
2019-05-01T09:15:35.845Z,50.83
2019-05-01T09:18:06.889Z,49.57
2019-05-01T09:20:39.670Z,49.08
2019-05-01T09:23:14.381Z,49.21
2019-05-01T09:26:14.751Z,48.73
2019-05-01T09:28:47.787Z,49.73
2019-05-01T09:31:21.236Z,50.47
2019-05-01T09:33:52.530Z,50.19
2019-05-01T09:36:24.361Z,51.36
2019-05-01T09:38:56.589Z,51.03
2019-05-01T09:41:38.058Z,50.63
2019-05-01T09:44:01.471Z,50.30
2019-05-01T09:46:34.681Z,50.96
2019-05-01T09:49:05.635Z,49.77
2019-05-01T09:51:55.911Z,49.30
2019-05-01T09:54:46.695Z,48.88
2019-05-01T09:57:17.985Z,50.19
2019-05-01T09:59:49.825Z,51.58
2019-05-01T10:02:22.407Z,51.08
2019-05-01T10:04:54.990Z,51.52
2019-05-01T10:07:28.881Z,52.77
2019-05-01T10:09:59.733Z,52.08
2019-05-01T10:12:31.561Z,51.09
2019-05-01T10:15:05.356Z,51.94
2019-05-01T10:17:36.092Z,50.97
2019-05-01T10:20:07.552Z,49.97
2019-05-01T10:22:41.135Z,49.13
2019-05-01T10:25:24.200Z,49.52
2019-05-01T10:28:07.240Z,48.56
2019-05-01T10:30:50.860Z,47.95
2019-05-01T10:33:28.974Z,47.40
2019-05-01T10:36:18.716Z,47.69
2019-05-01T10:38:51.063Z,47.69
2019-05-01T10:41:25.259Z,48.96
2019-05-01T10:43:59.952Z,49.09
2019-05-01T10:46:32.770Z,49.29
2019-05-01T10:49:06.441Z,48.26
2019-05-01T10:51:37.401Z,47.87
2019-05-01T10:54:08.972Z,47.54
2019-05-01T10:56:45.201Z,46.87
2019-05-01T10:59:16.805Z,46.44
2019-05-01T11:01:56.653Z,46.72
2019-05-01T11:04:29.765Z,46.53
2019-05-01T11:07:01.144Z,47.99
2019-05-01T11:09:32.166Z,46.96
2019-05-01T11:12:03.277Z,46.89
2019-05-01T11:14:34.076Z,46.38
2019-05-01T11:17:04.934Z,47.14
2019-05-01T11:19:39.925Z,47.79
2019-05-01T11:22:10.297Z,47.55
2019-05-01T11:24:44.011Z,46.32
2019-05-01T11:27:15.474Z,45.60
2019-05-01T11:29:47.416Z,45.02
2019-05-01T11:32:30.877Z,44.51
2019-05-01T11:35:21.233Z,44.42
2019-05-01T11:38:03.004Z,45.55
2019-05-01T11:40:37.691Z,44.31
2019-05-01T11:43:08.520Z,45.25
2019-05-01T11:45:40.058Z,43.77
2019-05-01T11:48:11.689Z,43.08
2019-05-01T11:50:47.216Z,42.97
2019-05-01T11:53:19.287Z,43.08
2019-05-01T11:55:55.351Z,43.38
2019-05-01T11:58:27.766Z,44.33
2019-05-01T12:01:00.959Z,44.23
2019-05-01T12:03:32.123Z,44.00
2019-05-01T12:06:04.133Z,43.01
2019-05-01T12:08:34.766Z,42.93
2019-05-01T12:11:09.515Z,42.12
2019-05-01T12:13:43.987Z,41.38
2019-05-01T12:16:24.038Z,40.04
2019-05-01T12:18:55.214Z,39.82
2019-05-01T12:21:31.079Z,39.07
2019-05-01T12:24:01.270Z,42.11
2019-05-01T12:26:33.406Z,42.11
2019-05-01T12:29:06.191Z,40.25
2019-05-01T12:31:37.328Z,38.92
2019-05-01T12:34:09.543Z,38.54
2019-05-01T12:36:44.595Z,38.21
2019-05-01T12:39:17.204Z,37.42
2019-05-01T12:41:56.202Z,37.16
2019-05-01T12:44:27.189Z,37.40
2019-05-01T12:47:08.467Z,36.13
2019-05-01T12:49:40.744Z,36.10
2019-05-01T12:52:19.336Z,34.81
2019-05-01T12:54:59.988Z,34.82
2019-05-01T12:57:30.676Z,33.65
2019-05-01T13:00:08.976Z,33.62
2019-05-01T13:02:38.018Z,32.87
2019-05-01T13:05:25.527Z,32.95
2019-05-01T13:07:58.857Z,33.40
2019-05-01T13:10:32.047Z,32.64
2019-05-01T13:13:05.699Z,33.07
2019-05-01T13:15:35.881Z,32.60
2019-05-01T13:18:06.719Z,31.72
2019-05-01T13:20:37.736Z,32.39
2019-05-01T13:23:09.595Z,31.16
2019-05-01T13:25:39.791Z,31.50
2019-05-01T13:28:38.655Z,30.76
2019-05-01T13:31:21.342Z,30.21
2019-05-01T13:33:52.525Z,30.31
2019-05-01T13:36:23.059Z,30.12
2019-05-01T13:38:54.115Z,29.54
2019-05-01T13:41:24.763Z,28.17
2019-05-01T13:43:55.052Z,28.38
2019-05-01T13:46:25.257Z,28.28
2019-05-01T13:48:55.456Z,26.84
2019-05-01T13:51:27.459Z,27.48
2019-05-01T13:53:58.010Z,26.50
2019-05-01T13:56:28.623Z,26.76
2019-05-01T13:59:05.380Z,26.17
2019-05-01T14:01:37.825Z,24.99
2019-05-01T14:04:10.364Z,24.97
2019-05-01T14:06:44.548Z,25.65
2019-05-01T14:09:22.879Z,24.99
2019-05-01T14:11:53.391Z,23.74
2019-05-01T14:14:25.533Z,22.78
2019-05-01T14:16:56.062Z,21.11
2019-05-01T14:19:28.635Z,21.80
2019-05-01T14:22:24.236Z,20.56
2019-05-01T14:24:57.980Z,20.05
2019-05-01T14:27:31.543Z,19.56
2019-05-01T14:30:04.488Z,19.33
2019-05-01T14:32:36.189Z,18.31
2019-05-01T14:35:09.509Z,18.03
2019-05-01T14:37:41.593Z,17.74
2019-05-01T14:40:12.768Z,18.61
2019-05-01T14:42:45.159Z,18.39
2019-05-01T14:45:19.025Z,18.56
2019-05-01T14:47:50.365Z,18.29
2019-05-01T14:50:23.040Z,18.79
2019-05-01T14:52:54.919Z,18.59
2019-05-01T14:55:27.172Z,17.79
2019-05-01T14:57:59.262Z,17.46
2019-05-01T15:00:30.212Z,18.18
2019-05-01T15:03:02.734Z,18.23
2019-05-01T15:05:38.405Z,17.76
2019-05-01T15:08:09.205Z,17.91
2019-05-01T15:10:41.993Z,17.38
2019-05-01T15:13:26.720Z,17.65
2019-05-01T15:16:23.192Z,17.32
2019-05-01T15:19:12.319Z,17.23
2019-05-01T15:21:44.480Z,17.73
2019-05-01T15:24:15.995Z,17.69
2019-05-01T15:26:47.467Z,19.15
2019-05-01T15:29:20.157Z,20.62
2019-05-01T15:31:53.527Z,21.96
2019-05-01T15:34:24.525Z,23.77
2019-05-01T15:36:57.313Z,24.71
2019-05-01T15:39:36.220Z,25.76
2019-05-01T15:42:28.218Z,27.12
2019-05-01T15:45:01.086Z,28.09
2019-05-01T15:47:34.252Z,28.98
2019-05-01T15:50:05.682Z,30.02
2019-05-01T15:52:36.669Z,30.64
2019-05-01T15:55:07.716Z,31.27
2019-05-01T15:57:38.034Z,32.27
2019-05-01T16:00:12.187Z,32.95
2019-05-01T16:02:45.333Z,33.74
2019-05-01T16:05:18.032Z,33.44
2019-05-01T16:07:49.380Z,35.22
2019-05-01T16:10:24.345Z,34.92
2019-05-01T16:13:00.607Z,35.53
2019-05-01T16:15:34.944Z,35.73
2019-05-01T16:18:06.452Z,35.17
2019-05-01T16:20:40.790Z,36.90
2019-05-01T16:23:13.676Z,37.33
2019-05-01T16:25:45.841Z,37.40
2019-05-01T16:28:19.386Z,37.14
2019-05-01T16:30:50.491Z,37.83
2019-05-01T16:33:23.227Z,37.67
2019-05-01T16:35:53.852Z,37.41
2019-05-01T16:38:34.578Z,37.89
2019-05-01T16:41:08.523Z,37.72
2019-05-01T16:43:40.470Z,38.26
2019-05-01T16:46:11.138Z,38.51
2019-05-01T16:48:43.378Z,39.90
2019-05-01T16:51:14.413Z,38.78
2019-05-01T16:53:45.045Z,38.11
2019-05-01T16:56:15.284Z,38.90
2019-05-01T16:58:45.800Z,38.90
2019-05-01T17:01:31.272Z,38.31
2019-05-01T17:04:06.628Z,38.65
2019-05-01T17:06:57.824Z,39.69
2019-05-01T17:09:46.501Z,39.69
2019-05-01T17:12:21.979Z,38.29
2019-05-01T17:14:53.993Z,39.39
2019-05-01T17:17:25.465Z,40.06
2019-05-01T17:19:56.716Z,39.61
2019-05-01T17:22:31.009Z,40.04
2019-05-01T17:25:03.417Z,39.63
2019-05-01T17:27:35.806Z,39.26
2019-05-01T17:30:15.149Z,39.67
2019-05-01T17:32:48.430Z,39.67
2019-05-01T17:35:21.122Z,39.24
2019-05-01T17:37:52.632Z,41.18
2019-05-01T17:40:24.421Z,41.00
2019-05-01T17:42:55.024Z,41.00
2019-05-01T17:45:29.977Z,40.39
2019-05-01T17:48:01.802Z,41.28
2019-05-01T17:50:34.712Z,41.34
2019-05-01T17:53:06.493Z,41.75
2019-05-01T17:55:37.833Z,41.81
2019-05-01T17:58:11.187Z,41.97
2019-05-01T18:00:59.775Z,41.35
2019-05-01T18:03:55.819Z,42.16
2019-05-01T18:06:31.270Z,42.11
2019-05-01T18:09:08.228Z,43.17
2019-05-01T18:11:37.242Z,42.85
2019-05-01T18:14:07.969Z,42.35
2019-05-01T18:16:40.513Z,41.98
2019-05-01T18:19:11.977Z,43.15
2019-05-01T18:21:51.249Z,43.06
2019-05-01T18:24:58.429Z,43.33
2019-05-01T18:27:49.805Z,43.39
2019-05-01T18:30:21.947Z,44.13
2019-05-01T18:32:53.530Z,43.98
2019-05-01T18:35:30.982Z,44.52
2019-05-01T18:38:20.644Z,44.67
2019-05-01T18:40:58.101Z,44.32
2019-05-01T18:43:32.085Z,44.45
2019-05-01T18:46:02.127Z,44.64
2019-05-01T18:48:33.124Z,44.89
2019-05-01T18:51:03.878Z,44.78
2019-05-01T18:53:34.867Z,44.92
2019-05-01T18:56:09.641Z,45.24
2019-05-01T18:58:41.615Z,45.32
2019-05-01T19:01:15.528Z,45.23
2019-05-01T19:03:47.906Z,45.53
2019-05-01T19:06:20.100Z,45.24
2019-05-01T19:08:51.446Z,44.62
2019-05-01T19:11:26.013Z,44.33
2019-05-01T19:14:00.767Z,45.52
2019-05-01T19:16:31.138Z,45.55
2019-05-01T19:19:04.491Z,45.66
2019-05-01T19:21:36.079Z,45.75
2019-05-01T19:24:06.693Z,45.78
2019-05-01T19:26:46.671Z,46.19
2019-05-01T19:29:26.892Z,46.14
2019-05-01T19:31:59.234Z,46.18
2019-05-01T19:34:32.144Z,45.94
2019-05-01T19:37:04.602Z,46.42
2019-05-01T19:39:43.418Z,46.60
2019-05-01T19:42:08.939Z,46.74
2019-05-01T19:44:40.984Z,46.71
2019-05-01T19:47:11.342Z,47.04
2019-05-01T19:50:07.482Z,46.71
2019-05-01T19:52:39.913Z,47.17
2019-05-01T19:55:11.182Z,47.25
2019-05-01T19:57:41.810Z,46.90
2019-05-01T20:00:13.475Z,47.36
2019-05-01T20:02:46.678Z,47.15
2019-05-01T20:05:21.986Z,47.24
2019-05-01T20:07:51.142Z,47.34
2019-05-01T20:10:23.994Z,47.01
2019-05-01T20:12:55.416Z,47.18
2019-05-01T20:15:26.629Z,47.05
2019-05-01T20:17:58.411Z,47.09
2019-05-01T20:20:29.144Z,47.43
2019-05-01T20:23:06.483Z,47.26
2019-05-01T20:25:38.714Z,47.38
2019-05-01T20:28:10.695Z,47.62
2019-05-01T20:30:41.591Z,47.58
2019-05-01T20:33:12.539Z,47.56
2019-05-01T20:35:46.490Z,47.58
2019-05-01T20:38:17.181Z,47.68
2019-05-01T20:40:47.790Z,47.70
2019-05-01T20:43:20.599Z,47.56
2019-05-01T20:45:53.098Z,47.83
2019-05-01T20:48:25.193Z,47.91
2019-05-01T20:50:57.067Z,47.84
2019-05-01T20:53:28.376Z,47.84
2019-05-01T20:56:05.807Z,47.87
2019-05-01T20:58:36.813Z,47.72
2019-05-01T21:01:08.529Z,47.88
2019-05-01T21:03:41.739Z,48.22
2019-05-01T21:06:21.559Z,48.69
2019-05-01T21:09:13.882Z,48.57
2019-05-01T21:12:04.193Z,48.66
2019-05-01T21:14:25.093Z,48.71
2019-05-01T21:16:57.423Z,48.78
2019-05-01T21:19:32.509Z,48.57
2019-05-01T21:22:07.677Z,48.72
2019-05-01T21:24:39.792Z,48.59
2019-05-01T21:27:10.680Z,48.84
2019-05-01T21:29:40.928Z,48.65
2019-05-01T21:32:17.943Z,48.55
2019-05-01T21:34:46.626Z,48.61
2019-05-01T21:37:19.046Z,48.43
2019-05-01T21:39:50.451Z,48.44
2019-05-01T21:42:21.554Z,48.47
2019-05-01T21:45:07.721Z,48.55
2019-05-01T21:47:42.540Z,48.70
2019-05-01T21:50:17.849Z,48.86
2019-05-01T21:52:48.502Z,48.69
2019-05-01T21:55:20.540Z,48.56
2019-05-01T21:57:55.121Z,48.51
2019-05-01T22:00:29.222Z,48.70
2019-05-01T22:03:03.071Z,48.83
2019-05-01T22:05:39.351Z,48.83
2019-05-01T22:08:09.435Z,49.05
2019-05-01T22:10:51.770Z,48.88
2019-05-01T22:13:20.416Z,49.03
2019-05-01T22:15:56.032Z,49.18
2019-05-01T22:18:37.300Z,48.97
2019-05-01T22:21:13.393Z,48.78
2019-05-01T22:24:04.193Z,48.65
2019-05-01T22:26:39.571Z,48.78
2019-05-01T22:29:13.368Z,48.39
2019-05-01T22:31:57.448Z,48.12
2019-05-01T22:34:38.634Z,47.93
2019-05-01T22:37:09.756Z,47.67
2019-05-01T22:39:43.307Z,47.98
2019-05-01T22:42:13.485Z,48.11
2019-05-01T22:44:44.470Z,48.07
2019-05-01T22:47:16.371Z,47.95
2019-05-01T22:49:51.024Z,47.87
2019-05-01T22:52:21.633Z,47.56
2019-05-01T22:54:52.556Z,47.71
2019-05-01T22:57:24.966Z,47.79
2019-05-01T22:59:57.078Z,47.98
2019-05-01T23:02:39.253Z,47.82
2019-05-01T23:05:11.900Z,47.76
2019-05-01T23:07:43.249Z,47.42
2019-05-01T23:10:13.863Z,47.31
2019-05-01T23:12:44.990Z,47.33
2019-05-01T23:15:21.433Z,47.27
2019-05-01T23:17:53.325Z,47.05
2019-05-01T23:20:29.577Z,46.86
2019-05-01T23:23:00.074Z,46.87
2019-05-01T23:25:36.584Z,46.58
2019-05-01T23:28:06.027Z,46.91
2019-05-01T23:30:37.036Z,46.51
2019-05-01T23:33:07.362Z,46.48
2019-05-01T23:35:41.757Z,46.76
2019-05-01T23:38:16.236Z,46.71
2019-05-01T23:40:50.975Z,46.46
2019-05-01T23:43:23.083Z,46.09
2019-05-01T23:45:57.116Z,46.51
2019-05-01T23:48:29.609Z,46.66
2019-05-01T23:51:02.614Z,46.46
2019-05-01T23:53:33.462Z,46.71
2019-05-01T23:56:06.715Z,46.66
2019-05-01T23:58:38.698Z,46.77
